createdAt,value
2023-08-06T00:00:57.254Z,100338.84
2023-08-06T00:02:12.424Z,100260.16
2023-08-06T00:03:24.526Z,100337.97
2023-08-06T00:04:40.073Z,100260.97
2023-08-06T00:05:51.432Z,100339.94
2023-08-06T00:07:07.725Z,100267.94
2023-08-06T00:08:18.295Z,100336.28
2023-08-06T00:09:35.354Z,100272.94
2023-08-06T00:10:45.318Z,100339.94
2023-08-06T00:12:03.114Z,100267.78
2023-08-06T00:13:12.199Z,100334.56
2023-08-06T00:14:30.731Z,100259.84
2023-08-06T00:15:39.099Z,100334.56
2023-08-06T00:16:58.434Z,100265.34
2023-08-06T00:18:06.095Z,100335.59
2023-08-06T00:19:26.174Z,100264.53
2023-08-06T00:20:32.980Z,100322.16
2023-08-06T00:21:54.143Z,100248.84
2023-08-06T00:22:59.896Z,100324.53
2023-08-06T00:24:22.066Z,100250.25
2023-08-06T00:25:26.793Z,100329.91
2023-08-06T00:26:49.682Z,100253.00
2023-08-06T00:27:53.822Z,100327.22
2023-08-06T00:29:17.383Z,100251.91
2023-08-06T00:30:20.712Z,100314.81
2023-08-06T00:31:45.018Z,100240.06
2023-08-06T00:32:48.315Z,100322.16
2023-08-06T00:34:12.641Z,100246.72
2023-08-06T00:35:15.399Z,100306.03
2023-08-06T00:36:40.281Z,100252.53
2023-08-06T00:37:42.312Z,100307.84
2023-08-06T00:39:08.359Z,100249.44
2023-08-06T00:40:09.953Z,100307.72
2023-08-06T00:41:36.106Z,100247.16
2023-08-06T00:42:36.894Z,100314.81
2023-08-06T00:44:03.974Z,100248.31
2023-08-06T00:45:04.154Z,100322.84
2023-08-06T00:46:32.805Z,100233.09
2023-08-06T00:47:31.906Z,100309.44
2023-08-06T00:49:00.743Z,100244.25
2023-08-06T00:49:58.825Z,100307.72
2023-08-06T00:51:28.457Z,100241.03
2023-08-06T00:52:25.739Z,100318.47
2023-08-06T00:53:56.717Z,100237.00
2023-08-06T00:54:52.634Z,100309.44
2023-08-06T00:56:24.582Z,100238.28
2023-08-06T00:57:19.797Z,100309.44
2023-08-06T00:58:52.345Z,100236.00
2023-08-06T00:59:47.197Z,100314.81
2023-08-06T01:01:20.502Z,100238.28
2023-08-06T01:02:14.161Z,100318.19
2023-08-06T01:03:48.315Z,100241.84
2023-08-06T01:04:42.502Z,100313.78
2023-08-06T01:06:18.208Z,100241.84
2023-08-06T01:07:39.450Z,100316.47
2023-08-06T01:08:56.884Z,100238.28
2023-08-06T01:10:15.258Z,100312.13
2023-08-06T01:11:32.826Z,100242.66
2023-08-06T01:13:02.354Z,100316.47
2023-08-06T01:14:03.926Z,100238.44
2023-08-06T01:15:33.861Z,100311.09
2023-08-06T01:16:32.634Z,100237.66
2023-08-06T01:18:00.866Z,100305.72
2023-08-06T01:19:00.322Z,100239.59
2023-08-06T01:20:31.614Z,100304.75
2023-08-06T01:21:27.985Z,100231.66
2023-08-06T01:22:58.667Z,100308.28
2023-08-06T01:23:56.294Z,100233.25
2023-08-06T01:25:35.882Z,100301.81
2023-08-06T01:26:43.826Z,100229.38
2023-08-06T01:28:17.497Z,100291.06
2023-08-06T01:29:23.491Z,100234.88
2023-08-06T01:30:44.575Z,100290.06
2023-08-06T01:31:54.018Z,100236.84
2023-08-06T01:33:17.293Z,100296.13
2023-08-06T01:34:32.234Z,100237.94
2023-08-06T01:35:44.345Z,100293.31
2023-08-06T01:37:00.003Z,100230.03
2023-08-06T01:38:11.329Z,100294.16
2023-08-06T01:39:27.715Z,100233.91
2023-08-06T01:40:38.375Z,100295.88
2023-08-06T01:41:55.490Z,100240.38
2023-08-06T01:43:05.245Z,100298.41
2023-08-06T01:44:23.338Z,100227.28
2023-08-06T01:45:32.170Z,100297.53
2023-08-06T01:46:51.058Z,100233.28
2023-08-06T01:47:59.112Z,100308.28
2023-08-06T01:49:18.806Z,100226.63
2023-08-06T01:50:26.010Z,100294.84
2023-08-06T01:51:46.444Z,100227.44
2023-08-06T01:52:52.867Z,100295.88
2023-08-06T01:54:14.071Z,100228.25
2023-08-06T01:55:19.820Z,100302.91
2023-08-06T01:56:41.760Z,100232.47
2023-08-06T01:57:46.709Z,100297.53
2023-08-06T01:59:09.414Z,100230.53
2023-08-06T02:00:13.911Z,100293.03
2023-08-06T02:01:37.064Z,100228.25
2023-08-06T02:02:42.055Z,100292.16
2023-08-06T02:04:04.795Z,100236.50
2023-08-06T02:05:10.520Z,100294.00
2023-08-06T02:06:32.444Z,100233.75
2023-08-06T02:07:37.516Z,100302.91
2023-08-06T02:09:00.078Z,100238.59
2023-08-06T02:10:04.573Z,100288.78
2023-08-06T02:11:27.716Z,100234.72
2023-08-06T02:12:31.459Z,100296.13
2023-08-06T02:13:55.673Z,100237.16
2023-08-06T02:14:58.472Z,100297.84
2023-08-06T02:16:23.719Z,100239.91
2023-08-06T02:17:25.439Z,100303.22
2023-08-06T02:18:51.451Z,100235.53
2023-08-06T02:19:52.360Z,100296.13
2023-08-06T02:21:29.589Z,100236.66
2023-08-06T02:22:19.237Z,100290.63
2023-08-06T02:23:57.246Z,100236.16
2023-08-06T02:24:46.300Z,100295.16
2023-08-06T02:26:24.869Z,100228.56
2023-08-06T02:27:13.141Z,100293.75
2023-08-06T02:28:52.532Z,100233.59
2023-08-06T02:29:41.777Z,100294.72
2023-08-06T02:31:20.271Z,100229.53
2023-08-06T02:32:08.779Z,100289.34
2023-08-06T02:33:47.948Z,100222.09
2023-08-06T02:34:35.671Z,100278.59
2023-08-06T02:36:15.602Z,100216.09
2023-08-06T02:37:02.590Z,100283.00
2023-08-06T02:38:43.204Z,100218.38
2023-08-06T02:39:29.521Z,100285.69
2023-08-06T02:41:10.834Z,100215.94
2023-08-06T02:41:59.024Z,100281.16
2023-08-06T02:43:38.489Z,100215.63
2023-08-06T02:44:28.349Z,100280.31
2023-08-06T02:46:06.652Z,100214.19
2023-08-06T02:46:55.280Z,100277.75
2023-08-06T02:48:35.087Z,100220.78
2023-08-06T02:49:22.412Z,100276.19
2023-08-06T02:51:03.775Z,100217.56
2023-08-06T02:51:52.081Z,100277.19
2023-08-06T02:53:33.616Z,100207.69
2023-08-06T02:54:19.384Z,100285.25
2023-08-06T02:56:05.719Z,100207.38
2023-08-06T02:56:47.671Z,100273.81
2023-08-06T02:58:45.013Z,100212.53
2023-08-06T02:59:24.413Z,100268.69
2023-08-06T03:01:24.446Z,100213.03
2023-08-06T03:02:14.010Z,100276.06
2023-08-06T03:03:57.972Z,100214.66
2023-08-06T03:04:50.382Z,100273.38
2023-08-06T03:06:31.677Z,100214.34
2023-08-06T03:07:19.979Z,100271.53
2023-08-06T03:09:01.298Z,100208.53
2023-08-06T03:09:55.824Z,100264.16
2023-08-06T03:11:29.350Z,100210.13
2023-08-06T03:12:22.904Z,100264.16
2023-08-06T03:14:02.818Z,100201.38
2023-08-06T03:14:50.031Z,100263.34
2023-08-06T03:16:31.402Z,100209.16
2023-08-06T03:17:17.697Z,100259.66
2023-08-06T03:18:59.590Z,100220.00
2023-08-06T03:19:44.637Z,100262.34
2023-08-06T03:21:27.281Z,100214.66
2023-08-06T03:22:12.539Z,100266.72
2023-08-06T03:23:55.135Z,100217.88
2023-08-06T03:24:40.073Z,100265.75
2023-08-06T03:26:26.149Z,100217.22
2023-08-06T03:27:08.472Z,100268.44
2023-08-06T03:28:53.816Z,100212.69
2023-08-06T03:29:37.940Z,100259.38
2023-08-06T03:31:22.973Z,100213.50
2023-08-06T03:32:04.989Z,100259.38
2023-08-06T03:33:51.029Z,100217.41
2023-08-06T03:34:32.202Z,100262.75
2023-08-06T03:36:24.758Z,100216.09
2023-08-06T03:36:59.050Z,100259.09
2023-08-06T03:38:53.397Z,100214.16
2023-08-06T03:39:27.810Z,100260.78
2023-08-06T03:41:21.113Z,100210.59
2023-08-06T03:41:55.292Z,100262.50
2023-08-06T03:43:48.961Z,100214.47
2023-08-06T03:44:22.855Z,100260.78
2023-08-06T03:46:23.092Z,100213.00
2023-08-06T03:46:49.921Z,100261.91
2023-08-06T03:48:50.954Z,100212.22
2023-08-06T03:49:16.855Z,100265.59
2023-08-06T03:51:18.585Z,100214.66
2023-08-06T03:51:43.748Z,100263.06
2023-08-06T03:53:48.258Z,100209.47
2023-08-06T03:54:11.438Z,100262.19
2023-08-06T03:56:16.261Z,100212.50
2023-08-06T03:56:38.300Z,100264.03
2023-08-06T03:58:43.997Z,100207.66
2023-08-06T03:59:05.696Z,100260.66
2023-08-06T04:01:12.031Z,100215.41
2023-08-06T04:01:32.804Z,100256.28
2023-08-06T04:03:44.390Z,100217.06
2023-08-06T04:03:59.927Z,100258.22
2023-08-06T04:06:12.173Z,100208.47
2023-08-06T04:06:26.821Z,100260.91
2023-08-06T04:08:39.870Z,100212.50
2023-08-06T04:08:53.703Z,100265.59
2023-08-06T04:11:09.470Z,100206.22
2023-08-06T04:11:20.616Z,100267.56
2023-08-06T04:13:37.146Z,100214.81
2023-08-06T04:13:47.480Z,100264.16
2023-08-06T04:16:05.540Z,100217.84
2023-08-06T04:16:15.889Z,100265.19
2023-08-06T04:18:34.469Z,100216.72
2023-08-06T04:18:42.991Z,100267.88
2023-08-06T04:21:03.384Z,100223.66
2023-08-06T04:21:09.908Z,100276.88
2023-08-06T04:23:31.074Z,100219.13
2023-08-06T04:23:36.771Z,100277.91
2023-08-06T04:26:03.359Z,100225.47
2023-08-06T04:26:06.874Z,100292.28
2023-08-06T04:28:35.833Z,100287.91
2023-08-06T04:28:35.994Z,100229.16
2023-08-06T04:31:02.832Z,100282.53
2023-08-06T04:31:03.849Z,100229.66
2023-08-06T04:33:32.540Z,100280.84
2023-08-06T04:33:34.185Z,100231.28
2023-08-06T04:36:02.993Z,100279.13
2023-08-06T04:36:07.530Z,100232.91
2023-08-06T04:38:30.005Z,100285.38
2023-08-06T04:38:35.414Z,100237.75
2023-08-06T04:40:58.707Z,100279.13
2023-08-06T04:41:04.699Z,100233.53
2023-08-06T04:43:25.789Z,100287.06
2023-08-06T04:43:32.670Z,100237.94
2023-08-06T04:45:54.983Z,100286.22
2023-08-06T04:46:00.336Z,100232.09
2023-08-06T04:48:21.858Z,100291.59
2023-08-06T04:48:28.058Z,100234.84
2023-08-06T04:50:49.561Z,100287.91
2023-08-06T04:50:55.850Z,100238.56
2023-08-06T04:53:16.630Z,100292.28
2023-08-06T04:53:23.644Z,100238.41
2023-08-06T04:55:43.696Z,100287.63
2023-08-06T04:55:51.328Z,100236.31
2023-08-06T04:58:11.278Z,100298.09
2023-08-06T04:58:18.986Z,100241.31
2023-08-06T05:00:38.167Z,100293.44
2023-08-06T05:00:46.620Z,100244.81
2023-08-06T05:03:05.974Z,100294.16
2023-08-06T05:03:14.271Z,100247.72
2023-08-06T05:05:32.850Z,100296.69
2023-08-06T05:05:42.775Z,100250.97
2023-08-06T05:07:59.724Z,100295.56
2023-08-06T05:08:18.732Z,100243.22
2023-08-06T05:10:33.558Z,100300.66
2023-08-06T05:10:47.009Z,100244.22
2023-08-06T05:13:00.442Z,100300.38
2023-08-06T05:13:14.734Z,100246.00
2023-08-06T05:15:27.414Z,100303.75
2023-08-06T05:15:43.920Z,100260.69
2023-08-06T05:17:54.406Z,100305.19
2023-08-06T05:18:12.710Z,100254.59
2023-08-06T05:20:21.506Z,100292.16
2023-08-06T05:20:41.717Z,100258.63
2023-08-06T05:22:48.416Z,100308.72
2023-08-06T05:23:09.407Z,100262.19
2023-08-06T05:25:15.685Z,100307.44
2023-08-06T05:25:37.524Z,100261.38
2023-08-06T05:27:42.634Z,100305.22
2023-08-06T05:28:05.313Z,100262.97
2023-08-06T05:30:09.820Z,100314.69
2023-08-06T05:30:33.237Z,100268.66
2023-08-06T05:32:36.751Z,100320.50
2023-08-06T05:33:01.112Z,100270.78
2023-08-06T05:35:03.967Z,100311.16
2023-08-06T05:35:28.749Z,100274.00
2023-08-06T05:37:30.888Z,100315.94
2023-08-06T05:37:56.389Z,100273.66
2023-08-06T05:39:57.738Z,100325.44
2023-08-06T05:40:25.678Z,100282.41
2023-08-06T05:42:25.235Z,100329.53
2023-08-06T05:42:56.684Z,100282.41
2023-08-06T05:44:52.140Z,100334.63
2023-08-06T05:45:24.532Z,100292.63
2023-08-06T05:47:20.639Z,100335.19
2023-08-06T05:47:52.432Z,100291.00
2023-08-06T05:49:47.504Z,100341.13
2023-08-06T05:50:20.098Z,100294.06
2023-08-06T05:52:14.415Z,100347.06
2023-08-06T05:52:47.711Z,100301.81
2023-08-06T05:54:41.691Z,100338.59
2023-08-06T05:55:15.423Z,100299.38
2023-08-06T05:57:08.654Z,100347.03
2023-08-06T05:57:43.074Z,100302.97
2023-08-06T05:59:35.585Z,100342.78
2023-08-06T06:00:11.377Z,100307.31
2023-08-06T06:02:02.478Z,100345.91
2023-08-06T06:02:41.997Z,100303.44
2023-08-06T06:04:29.405Z,100352.41
2023-08-06T06:05:09.981Z,100307.81
2023-08-06T06:06:56.328Z,100351.81
2023-08-06T06:07:37.641Z,100315.25
2023-08-06T06:09:23.360Z,100354.91
2023-08-06T06:10:05.789Z,100317.66
2023-08-06T06:11:51.354Z,100360.72
2023-08-06T06:12:33.631Z,100322.06
2023-08-06T06:14:19.085Z,100368.50
2023-08-06T06:15:02.101Z,100330.63
2023-08-06T06:16:46.529Z,100371.63
2023-08-06T06:17:31.297Z,100329.16
2023-08-06T06:19:13.747Z,100368.34
2023-08-06T06:19:59.134Z,100332.84
2023-08-06T06:21:40.832Z,100372.41
2023-08-06T06:22:26.938Z,100335.09
2023-08-06T06:24:09.160Z,100370.97
2023-08-06T06:24:54.669Z,100333.47
2023-08-06T06:26:36.276Z,100382.88
2023-08-06T06:27:22.473Z,100342.22
2023-08-06T06:29:03.639Z,100383.97
2023-08-06T06:29:50.334Z,100346.09
2023-08-06T06:31:31.170Z,100384.22
2023-08-06T06:32:18.129Z,100346.09
2023-08-06T06:33:58.673Z,100382.63
2023-08-06T06:34:45.898Z,100349.34
2023-08-06T06:36:25.617Z,100388.41
2023-08-06T06:37:13.667Z,100354.22
2023-08-06T06:38:52.566Z,100383.13
2023-08-06T06:39:41.462Z,100358.56
2023-08-06T06:41:19.467Z,100396.84
2023-08-06T06:42:09.242Z,100357.94
2023-08-06T06:43:46.367Z,100389.00
2023-08-06T06:44:43.565Z,100352.44
2023-08-06T06:46:13.391Z,100398.22
2023-08-06T06:47:11.359Z,100358.75
2023-08-06T06:48:40.387Z,100390.53
2023-08-06T06:49:39.150Z,100363.13
2023-08-06T06:51:07.326Z,100389.91
2023-08-06T06:52:07.533Z,100364.75
2023-08-06T06:53:34.207Z,100396.53
2023-08-06T06:54:35.294Z,100369.09
2023-08-06T06:56:05.394Z,100392.41
2023-08-06T06:57:03.107Z,100366.84
2023-08-06T06:58:32.541Z,100400.88
2023-08-06T06:59:30.895Z,100372.34
2023-08-06T07:00:59.746Z,100403.25
2023-08-06T07:01:58.728Z,100370.41
2023-08-06T07:03:26.803Z,100402.25
2023-08-06T07:04:26.533Z,100370.41
2023-08-06T07:05:58.182Z,100410.34
2023-08-06T07:06:55.250Z,100370.41
2023-08-06T07:08:25.097Z,100407.94
2023-08-06T07:09:23.141Z,100372.84
2023-08-06T07:10:51.975Z,100407.59
2023-08-06T07:11:50.942Z,100375.41
2023-08-06T07:13:18.925Z,100410.88
2023-08-06T07:14:19.145Z,100379.81
2023-08-06T07:15:45.810Z,100415.19
2023-08-06T07:16:47.009Z,100376.72
2023-08-06T07:18:12.684Z,100419.47
2023-08-06T07:19:14.858Z,100386.91
2023-08-06T07:20:39.645Z,100422.06
2023-08-06T07:21:42.625Z,100383.66
2023-08-06T07:23:08.762Z,100422.63
2023-08-06T07:24:10.394Z,100380.91
2023-08-06T07:25:35.831Z,100421.25
2023-08-06T07:26:38.251Z,100388.53
2023-08-06T07:28:03.385Z,100426.22
2023-08-06T07:29:06.006Z,100392.41
2023-08-06T07:30:30.356Z,100429.22
2023-08-06T07:31:33.908Z,100395.50
2023-08-06T07:32:57.311Z,100429.22
2023-08-06T07:34:01.750Z,100395.97
2023-08-06T07:35:24.298Z,100422.84
2023-08-06T07:36:29.701Z,100403.41
2023-08-06T07:37:51.155Z,100434.31
2023-08-06T07:38:58.029Z,100395.66
2023-08-06T07:40:18.062Z,100432.63
2023-08-06T07:41:26.631Z,100393.41
2023-08-06T07:42:44.974Z,100434.31
2023-08-06T07:43:54.482Z,100406.84
2023-08-06T07:45:11.938Z,100434.31
2023-08-06T07:46:22.311Z,100408.75
2023-08-06T07:47:38.831Z,100436.00
2023-08-06T07:48:50.247Z,100395.00
2023-08-06T07:50:06.106Z,100437.84
2023-08-06T07:51:17.993Z,100404.41
2023-08-06T07:52:33.015Z,100442.25
2023-08-06T07:53:46.221Z,100404.53
2023-08-06T07:54:59.890Z,100443.06
2023-08-06T07:56:14.025Z,100406.50
2023-08-06T07:57:26.883Z,100429.47
2023-08-06T07:58:41.832Z,100406.78
2023-08-06T07:59:54.589Z,100438.09
2023-08-06T08:01:10.521Z,100407.09
2023-08-06T08:02:21.568Z,100429.72
2023-08-06T08:03:38.459Z,100414.84
2023-08-06T08:04:48.668Z,100443.91
2023-08-06T08:06:06.342Z,100406.13
2023-08-06T08:07:15.656Z,100436.81
2023-08-06T08:08:34.448Z,100409.84
2023-08-06T08:09:42.549Z,100441.34
2023-08-06T08:11:02.281Z,100411.09
2023-08-06T08:12:09.533Z,100444.47
2023-08-06T08:13:30.132Z,100422.34
2023-08-06T08:14:37.898Z,100445.41
2023-08-06T08:16:01.580Z,100431.34
2023-08-06T08:17:06.618Z,100444.56
2023-08-06T08:18:30.895Z,100426.88
2023-08-06T08:19:33.709Z,100454.38
2023-08-06T08:20:58.795Z,100436.81
2023-08-06T08:22:00.686Z,100458.81
2023-08-06T08:23:26.618Z,100445.59
2023-08-06T08:24:27.666Z,100458.69
2023-08-06T08:25:54.408Z,100454.56
2023-08-06T08:26:54.833Z,100460.28
2023-08-06T08:28:22.165Z,100469.66
2023-08-06T08:29:22.453Z,100460.69
2023-08-06T08:30:49.976Z,100465.50
2023-08-06T08:31:52.629Z,100464.66
2023-08-06T08:33:17.769Z,100466.31
2023-08-06T08:34:19.846Z,100460.56
2023-08-06T08:35:48.526Z,100470.50
2023-08-06T08:36:50.949Z,100463.69
2023-08-06T08:38:17.531Z,100474.84
2023-08-06T08:39:17.873Z,100463.97
2023-08-06T08:40:48.896Z,100495.81
2023-08-06T08:41:44.985Z,100471.59
2023-08-06T08:43:17.610Z,100480.69
2023-08-06T08:44:11.922Z,100475.84
2023-08-06T08:45:46.540Z,100485.25
2023-08-06T08:46:41.177Z,100478.13
2023-08-06T08:48:15.335Z,100490.97
2023-08-06T08:49:08.276Z,100484.94
2023-08-06T08:50:43.768Z,100485.03
2023-08-06T08:51:38.116Z,100484.38
2023-08-06T08:53:12.753Z,100492.97
2023-08-06T08:54:05.232Z,100491.88
2023-08-06T08:55:41.440Z,100487.31
2023-08-06T08:56:32.722Z,100495.66
2023-08-06T08:58:09.232Z,100485.88
2023-08-06T08:59:00.202Z,100506.16
2023-08-06T09:00:37.257Z,100487.19
2023-08-06T09:01:29.441Z,100504.16
2023-08-06T09:03:09.026Z,100492.69
2023-08-06T09:03:57.351Z,100512.34
2023-08-06T09:05:37.306Z,100505.88
2023-08-06T09:06:26.534Z,100504.41
2023-08-06T09:08:06.026Z,100506.81
2023-08-06T09:09:07.501Z,100514.56
2023-08-06T09:10:34.557Z,100503.84
2023-08-06T09:11:40.781Z,100523.22
2023-08-06T09:13:03.328Z,100506.50
2023-08-06T09:14:09.332Z,100519.19
2023-08-06T09:15:31.180Z,100511.38
2023-08-06T09:16:36.560Z,100515.88
2023-08-06T09:17:59.033Z,100514.31
2023-08-06T09:19:18.985Z,100528.69
2023-08-06T09:20:26.924Z,100517.25
2023-08-06T09:21:49.635Z,100522.66
2023-08-06T09:22:55.198Z,100510.13
2023-08-06T09:24:16.848Z,100528.94
2023-08-06T09:25:27.931Z,100514.00
2023-08-06T09:26:45.248Z,100529.63
2023-08-06T09:27:55.669Z,100514.00
2023-08-06T09:29:12.678Z,100533.53
2023-08-06T09:30:38.977Z,100530.47
2023-08-06T09:31:43.670Z,100535.72
2023-08-06T09:33:13.980Z,100520.00
2023-08-06T09:34:18.006Z,100548.69
2023-08-06T09:35:41.794Z,100537.50
2023-08-06T09:36:47.489Z,100545.25
2023-08-06T09:38:11.593Z,100537.50
2023-08-06T09:39:18.507Z,100548.94
2023-08-06T09:40:41.844Z,100533.09
2023-08-06T09:41:45.744Z,100552.59
2023-08-06T09:43:09.771Z,100531.38
2023-08-06T09:44:22.552Z,100552.88
2023-08-06T09:45:39.554Z,100541.84
2023-08-06T09:46:50.537Z,100554.84
2023-08-06T09:48:09.547Z,100539.13
2023-08-06T09:49:19.456Z,100548.75
2023-08-06T09:50:39.166Z,100537.38
2023-08-06T09:51:53.284Z,100556.78
2023-08-06T09:53:08.903Z,100537.38
2023-08-06T09:54:27.282Z,100565.81
2023-08-06T09:55:36.822Z,100545.63
2023-08-06T09:56:55.876Z,100564.09
2023-08-06T09:58:05.298Z,100555.28
2023-08-06T09:59:26.401Z,100564.97
2023-08-06T10:00:38.436Z,100556.38
2023-08-06T10:01:55.196Z,100569.34
2023-08-06T10:03:08.727Z,100548.25
2023-08-06T10:04:25.022Z,100574.81
2023-08-06T10:05:36.695Z,100553.47
2023-08-06T10:06:53.789Z,100565.81
2023-08-06T10:08:05.776Z,100548.78
2023-08-06T10:09:21.393Z,100570.06
2023-08-06T10:10:33.908Z,100546.94
2023-08-06T10:11:50.890Z,100574.34
2023-08-06T10:13:02.410Z,100560.38
2023-08-06T10:14:20.921Z,100568.69
2023-08-06T10:15:32.742Z,100555.06
2023-08-06T10:16:48.390Z,100568.44
2023-08-06T10:18:01.655Z,100549.56
2023-08-06T10:19:16.519Z,100573.56
2023-08-06T10:20:37.392Z,100553.97
2023-08-06T10:21:57.087Z,100575.97
2023-08-06T10:23:08.972Z,100552.84
2023-08-06T10:24:24.069Z,100575.63
2023-08-06T10:25:41.340Z,100555.59
2023-08-06T10:26:51.009Z,100581.59
2023-08-06T10:28:16.642Z,100547.34
2023-08-06T10:29:37.659Z,100579.63
2023-08-06T10:30:46.849Z,100557.81
2023-08-06T10:32:06.075Z,100589.84
2023-08-06T10:33:14.786Z,100550.38
2023-08-06T10:34:51.815Z,100590.31
2023-08-06T10:35:50.952Z,100559.94
2023-08-06T10:37:20.100Z,100583.69
2023-08-06T10:38:22.931Z,100556.09
2023-08-06T10:39:52.026Z,100584.16
2023-08-06T10:40:55.213Z,100556.28
2023-08-06T10:42:37.997Z,100587.28
2023-08-06T10:43:33.371Z,100560.34
2023-08-06T10:45:18.432Z,100586.06
2023-08-06T10:46:03.187Z,100565.84
2023-08-06T10:47:45.665Z,100595.81
2023-08-06T10:48:41.573Z,100564.22
2023-08-06T10:50:18.999Z,100593.84
2023-08-06T10:51:13.871Z,100562.59
2023-08-06T10:52:46.647Z,100595.44
2023-08-06T10:53:49.672Z,100564.84
2023-08-06T10:55:14.351Z,100601.34
2023-08-06T10:56:24.817Z,100572.56
2023-08-06T10:57:41.275Z,100604.75
2023-08-06T10:58:59.448Z,100578.34
2023-08-06T11:00:16.127Z,100609.88
2023-08-06T11:01:31.371Z,100571.75
2023-08-06T11:02:45.525Z,100607.91
2023-08-06T11:04:03.664Z,100585.47
2023-08-06T11:05:13.171Z,100607.66
2023-08-06T11:06:32.641Z,100582.75
2023-08-06T11:07:40.498Z,100616.69
2023-08-06T11:09:00.442Z,100591.78
2023-08-06T11:10:08.925Z,100626.34
2023-08-06T11:11:28.225Z,100585.66
2023-08-06T11:12:36.176Z,100628.03
2023-08-06T11:13:55.980Z,100592.47
2023-08-06T11:15:03.935Z,100621.56
2023-08-06T11:16:27.738Z,100596.88
2023-08-06T11:17:31.723Z,100630.31
2023-08-06T11:18:58.461Z,100601.22
2023-08-06T11:20:05.269Z,100626.50
2023-08-06T11:21:26.966Z,100599.81
2023-08-06T11:22:32.458Z,100638.81
2023-08-06T11:23:55.251Z,100605.28
2023-08-06T11:24:59.587Z,100636.13
2023-08-06T11:26:24.607Z,100605.91
2023-08-06T11:27:27.361Z,100633.19
2023-08-06T11:28:52.874Z,100600.41
2023-08-06T11:29:54.231Z,100629.53
2023-08-06T11:31:24.845Z,100600.41
2023-08-06T11:32:21.133Z,100631.22
2023-08-06T11:33:53.649Z,100605.91
2023-08-06T11:34:48.101Z,100632.94
2023-08-06T11:36:34.588Z,100609.16
2023-08-06T11:37:15.000Z,100645.66
2023-08-06T11:39:03.882Z,100612.44
2023-08-06T11:39:49.816Z,100643.09
2023-08-06T11:41:32.215Z,100617.91
2023-08-06T11:42:16.834Z,100638.56
2023-08-06T11:44:00.840Z,100625.31
2023-08-06T11:44:46.565Z,100641.13
2023-08-06T11:46:28.734Z,100620.16
2023-08-06T11:47:14.455Z,100635.75
2023-08-06T11:48:58.953Z,100632.22
2023-08-06T11:49:41.902Z,100643.09
2023-08-06T11:51:27.808Z,100628.50
2023-08-06T11:52:10.218Z,100642.22
2023-08-06T11:54:01.807Z,100623.19
2023-08-06T11:54:38.354Z,100646.50
2023-08-06T11:56:29.727Z,100632.75
2023-08-06T11:57:09.195Z,100646.50
2023-08-06T11:58:57.573Z,100628.06
2023-08-06T11:59:36.145Z,100651.03
2023-08-06T12:01:26.903Z,100632.13
2023-08-06T12:02:03.775Z,100657.25
2023-08-06T12:03:59.493Z,100637.84
2023-08-06T12:04:33.885Z,100658.09
2023-08-06T12:06:30.367Z,100637.03
2023-08-06T12:07:08.761Z,100659.81
2023-08-06T12:08:58.149Z,100636.00
2023-08-06T12:09:37.212Z,100659.81
2023-08-06T12:11:25.909Z,100641.50
2023-08-06T12:12:04.924Z,100666.88
2023-08-06T12:13:53.693Z,100644.75
2023-08-06T12:14:31.786Z,100669.16
2023-08-06T12:16:23.003Z,100643.94
2023-08-06T12:16:58.632Z,100677.94
2023-08-06T12:18:50.864Z,100651.06
2023-08-06T12:19:28.355Z,100674.84
2023-08-06T12:21:18.647Z,100658.47
2023-08-06T12:21:55.402Z,100681.69
2023-08-06T12:23:46.406Z,100664.88
2023-08-06T12:24:22.738Z,100683.00
2023-08-06T12:26:14.217Z,100661.84
2023-08-06T12:26:49.674Z,100695.34
2023-08-06T12:28:41.988Z,100664.06
2023-08-06T12:29:16.615Z,100690.69
2023-08-06T12:31:09.928Z,100665.19
2023-08-06T12:31:43.466Z,100695.06
2023-08-06T12:33:37.896Z,100664.59
2023-08-06T12:34:10.316Z,100704.13
2023-08-06T12:36:05.779Z,100662.31
2023-08-06T12:36:37.238Z,100705.97
2023-08-06T12:38:34.928Z,100668.03
2023-08-06T12:39:04.145Z,100704.13
2023-08-06T12:41:03.647Z,100669.34
2023-08-06T12:41:31.048Z,100705.81
2023-08-06T12:43:31.408Z,100674.22
2023-08-06T12:43:57.970Z,100716.56
2023-08-06T12:45:59.377Z,100683.78
2023-08-06T12:46:24.911Z,100721.22
2023-08-06T12:48:27.231Z,100677.50
2023-08-06T12:48:51.904Z,100716.84
2023-08-06T12:50:54.991Z,100686.88
2023-08-06T12:51:18.850Z,100724.91
2023-08-06T12:53:24.424Z,100680.25
2023-08-06T12:53:45.695Z,100721.22
2023-08-06T12:55:52.264Z,100684.59
2023-08-06T12:56:12.680Z,100727.59
2023-08-06T12:58:20.047Z,100687.28
2023-08-06T12:58:40.894Z,100725.88
2023-08-06T13:00:47.843Z,100689.91
2023-08-06T13:01:07.815Z,100727.84
2023-08-06T13:03:15.668Z,100687.38
2023-08-06T13:03:34.836Z,100729.81
2023-08-06T13:05:44.194Z,100687.59
2023-08-06T13:06:01.889Z,100726.16
2023-08-06T13:08:11.968Z,100691.97
2023-08-06T13:08:28.777Z,100734.94
2023-08-06T13:10:39.885Z,100702.44
2023-08-06T13:10:55.647Z,100736.63
2023-08-06T13:13:07.662Z,100698.25
2023-08-06T13:13:22.521Z,100736.63
2023-08-06T13:15:35.510Z,100701.53
2023-08-06T13:15:49.449Z,100744.81
2023-08-06T13:18:03.431Z,100714.16
2023-08-06T13:18:16.331Z,100736.91
2023-08-06T13:20:32.752Z,100710.09
2023-08-06T13:20:43.288Z,100748.38
2023-08-06T13:23:02.374Z,100706.50
2023-08-06T13:23:10.201Z,100743.00
2023-08-06T13:25:30.433Z,100713.94
2023-08-06T13:25:38.273Z,100752.75
2023-08-06T13:27:58.216Z,100708.44
2023-08-06T13:28:05.284Z,100753.59
2023-08-06T13:30:25.969Z,100719.94
2023-08-06T13:30:32.304Z,100748.09
2023-08-06T13:32:53.912Z,100724.94
2023-08-06T13:32:59.434Z,100751.78
2023-08-06T13:35:21.774Z,100714.56
2023-08-06T13:35:26.384Z,100757.28
2023-08-06T13:37:49.676Z,100724.75
2023-08-06T13:37:53.964Z,100754.72
2023-08-06T13:40:17.689Z,100719.81
2023-08-06T13:40:20.964Z,100759.25
2023-08-06T13:42:45.436Z,100723.38
2023-08-06T13:42:47.860Z,100758.66
2023-08-06T13:45:13.328Z,100726.13
2023-08-06T13:45:14.726Z,100756.19
2023-08-06T13:47:41.318Z,100722.88
2023-08-06T13:47:41.991Z,100759.16
2023-08-06T13:50:09.125Z,100768.44
2023-08-06T13:50:10.187Z,100726.94
2023-08-06T13:52:36.968Z,100772.97
2023-08-06T13:52:38.002Z,100729.69
2023-08-06T13:55:04.981Z,100769.56
2023-08-06T13:55:06.184Z,100725.91
2023-08-06T13:57:32.168Z,100771.66
2023-08-06T13:57:35.050Z,100730.59
2023-08-06T13:59:59.023Z,100772.88
2023-08-06T14:00:03.330Z,100733.34
2023-08-06T14:02:26.576Z,100776.81
2023-08-06T14:02:40.634Z,100727.25
2023-08-06T14:04:54.227Z,100777.06
2023-08-06T14:05:08.870Z,100730.59
2023-08-06T14:07:21.175Z,100785.25
2023-08-06T14:07:36.789Z,100729.97
2023-08-06T14:09:48.418Z,100775.63